Time;durP1;ratioP1;P1;durP2;ratioP2;P2;SDS_P1;SDS_P2;PMS_P1;PMS_P2;Temp;Humidity;BMP_temperature;BMP_pressure;BME280_temperature;BME280_humidity;BME280_pressure;Samples;Min_cycle;Max_cycle;Signal;HPM_P1;HPM_P2
2021/05/04 00:01:47;;;;;;;5.07;4.57;;;8.80;99.90;;;;;;5132794;28;20293;-51
2021/05/04 00:04:13;;;;;;;5.00;4.50;;;8.70;99.90;;;;;;5133094;28;20311;-56
2021/05/04 00:06:40;;;;;;;5.17;4.33;;;8.80;99.90;;;;;;5133053;28;20407;-54
2021/05/04 00:09:08;;;;;;;6.43;5.37;;;8.80;99.90;;;;;;5132937;28;20607;-53
2021/05/04 00:11:35;;;;;;;5.33;4.80;;;8.70;99.90;;;;;;5133162;28;20202;-53
2021/05/04 00:14:02;;;;;;;6.60;5.37;;;8.70;99.90;;;;;;5132586;28;20202;-55
2021/05/04 00:16:29;;;;;;;6.00;4.87;;;8.70;99.90;;;;;;5132825;28;20403;-55
2021/05/04 00:18:55;;;;;;;5.70;4.83;;;8.60;99.90;;;;;;5133011;28;20243;-55
2021/05/04 00:21:22;;;;;;;6.63;5.00;;;8.60;99.90;;;;;;5133114;28;20199;-56
2021/05/04 00:23:49;;;;;;;5.67;4.80;;;8.50;99.90;;;;;;5132562;28;20654;-53
2021/05/04 00:26:17;;;;;;;6.20;4.90;;;8.50;99.90;;;;;;5133038;28;20197;-51
2021/05/04 00:28:44;;;;;;;5.50;5.00;;;8.50;99.90;;;;;;5132319;28;20207;-56
2021/05/04 00:31:11;;;;;;;5.80;5.00;;;8.60;99.90;;;;;;5132842;28;20205;-54
2021/05/04 00:33:37;;;;;;;5.63;5.13;;;8.50;99.90;;;;;;5132648;28;20269;-55
2021/05/04 00:36:05;;;;;;;6.83;5.20;;;8.30;99.90;;;;;;5132512;28;20673;-55
2021/05/04 00:38:32;;;;;;;5.77;5.07;;;8.30;99.90;;;;;;5132716;28;20230;-53
2021/05/04 00:40:58;;;;;;;6.83;4.90;;;8.30;99.90;;;;;;5132772;28;20218;-55
2021/05/04 00:43:27;;;;;;;5.53;5.03;;;8.20;99.90;;;;;;5132475;28;20289;-53
2021/05/04 00:45:54;;;;;;;5.30;4.80;;;8.20;99.90;;;;;;5132637;28;20658;-52
2021/05/04 00:48:21;;;;;;;5.43;4.93;;;8.10;99.90;;;;;;5132492;28;20230;-53
2021/05/04 00:50:48;;;;;;;6.07;5.23;;;7.90;99.90;;;;;;5132887;28;20209;-53
2021/05/04 00:53:15;;;;;;;5.97;5.17;;;8.00;99.90;;;;;;5132354;28;20202;-55
2021/05/04 00:55:43;;;;;;;5.73;5.20;;;8.10;99.90;;;;;;5132487;28;20199;-56
2021/05/04 00:58:12;;;;;;;5.87;5.10;;;8.10;99.90;;;;;;5132695;28;20225;-54
2021/05/04 01:00:41;;;;;;;6.17;5.13;;;8.30;99.90;;;;;;5132749;28;20199;-57
2021/05/04 01:03:10;;;;;;;6.80;5.00;;;8.30;99.90;;;;;;5135495;27;20285;-54
2021/05/04 01:05:37;;;;;;;6.10;5.50;;;8.20;99.90;;;;;;5136248;27;20248;-54
2021/05/04 01:08:04;;;;;;;5.10;4.60;;;8.10;99.90;;;;;;5135714;27;20698;-56
2021/05/04 01:10:31;;;;;;;6.00;5.40;;;8.20;99.90;;;;;;5136217;27;20298;-54
2021/05/04 01:12:58;;;;;;;5.17;4.67;;;8.20;99.90;;;;;;5136045;27;20203;-54
2021/05/04 01:15:25;;;;;;;8.37;5.37;;;8.10;99.90;;;;;;5135890;27;20226;-53
2021/05/04 01:17:53;;;;;;;8.07;5.43;;;8.10;99.90;;;;;;5135719;27;20313;-54
2021/05/04 01:20:20;;;;;;;6.60;5.10;;;8.20;99.90;;;;;;5136027;27;20574;-52
2021/05/04 01:22:49;;;;;;;6.10;4.93;;;8.20;99.90;;;;;;5135929;27;20195;-55
2021/05/04 01:25:16;;;;;;;7.17;5.60;;;8.30;99.90;;;;;;5136034;27;20256;-52
2021/05/04 01:27:43;;;;;;;6.67;5.47;;;8.30;99.90;;;;;;5135662;27;20203;-54
2021/05/04 01:30:11;;;;;;;6.47;5.47;;;8.20;99.90;;;;;;5136045;27;20198;-51
2021/05/04 01:32:38;;;;;;;7.00;5.73;;;8.20;99.90;;;;;;5135713;27;20224;-56
2021/05/04 01:35:06;;;;;;;5.97;5.37;;;8.30;99.90;;;;;;5135865;27;20199;-53
2021/05/04 01:37:33;;;;;;;6.20;5.30;;;8.40;99.90;;;;;;5135661;27;20237;-54
2021/05/04 01:40:00;;;;;;;7.90;5.50;;;8.50;99.90;;;;;;5135472;27;20201;-53
2021/05/04 01:42:27;;;;;;;7.37;5.63;;;8.50;99.90;;;;;;5135664;27;20195;-56
2021/05/04 01:44:54;;;;;;;5.70;5.20;;;8.60;99.90;;;;;;5135567;27;20201;-55
2021/05/04 01:47:21;;;;;;;7.47;5.70;;;8.50;99.90;;;;;;5135519;27;20535;-54
2021/05/04 01:49:49;;;;;;;7.63;5.33;;;8.50;99.90;;;;;;5135490;27;20206;-55
2021/05/04 01:52:16;;;;;;;6.40;5.80;;;8.40;99.90;;;;;;5135607;27;20195;-57
2021/05/04 01:54:44;;;;;;;5.83;5.23;;;8.50;99.90;;;;;;5135268;27;20669;-54
2021/05/04 01:57:11;;;;;;;6.13;5.40;;;8.70;99.90;;;;;;5135288;27;20246;-55
2021/05/04 01:59:39;;;;;;;7.87;5.20;;;8.60;99.90;;;;;;5135239;27;20198;-56
2021/05/04 02:02:06;;;;;;;6.43;5.83;;;8.60;99.90;;;;;;5135266;27;20208;-54
2021/05/04 02:04:33;;;;;;;6.93;5.60;;;8.60;99.90;;;;;;5135183;27;20290;-52
2021/05/04 02:07:02;;;;;;;7.63;6.33;;;8.70;99.90;;;;;;5134894;27;20598;-54
2021/05/04 02:09:29;;;;;;;7.47;5.50;;;8.70;99.90;;;;;;5134718;27;20666;-55
2021/05/04 02:11:56;;;;;;;6.17;5.30;;;8.70;99.90;;;;;;5135112;27;20641;-54
2021/05/04 02:14:23;;;;;;;6.37;4.80;;;8.80;99.90;;;;;;5133765;27;20319;-52
2021/05/04 02:16:50;;;;;;;5.63;4.93;;;8.70;99.90;;;;;;5134834;27;20206;-51
2021/05/04 02:19:17;;;;;;;5.70;5.10;;;8.80;99.90;;;;;;5134962;27;20195;-54
2021/05/04 02:21:44;;;;;;;6.57;5.47;;;8.80;99.90;;;;;;5134404;27;20199;-52
2021/05/04 02:24:12;;;;;;;6.17;5.40;;;8.90;99.90;;;;;;5134748;27;20205;-55
2021/05/04 02:26:39;;;;;;;5.17;4.67;;;8.90;99.90;;;;;;5134785;27;20735;-54
2021/05/04 02:29:05;;;;;;;5.63;5.00;;;8.90;99.90;;;;;;5134586;27;20202;-55
2021/05/04 02:31:33;;;;;;;5.97;4.80;;;8.90;99.90;;;;;;5134315;27;20688;-53
2021/05/04 02:34:00;;;;;;;5.37;4.70;;;8.90;99.90;;;;;;5134569;27;20198;-53
2021/05/04 02:36:27;;;;;;;5.10;4.53;;;9.00;99.90;;;;;;5134264;27;20684;-55
2021/05/04 02:38:54;;;;;;;5.93;4.90;;;8.90;99.90;;;;;;5134371;27;20586;-54
2021/05/04 02:41:20;;;;;;;8.00;5.23;;;8.90;99.90;;;;;;5134400;27;20220;-54
2021/05/04 02:43:47;;;;;;;5.93;5.33;;;8.90;99.90;;;;;;5134373;27;20294;-61
2021/05/04 02:46:14;;;;;;;4.87;4.37;;;8.90;99.90;;;;;;5134333;27;20198;-61
2021/05/04 02:48:43;;;;;;;5.10;4.60;;;9.00;99.90;;;;;;5134315;27;20336;-61
2021/05/04 02:51:11;;;;;;;6.57;4.60;;;9.10;99.90;;;;;;5133751;27;20224;-61
2021/05/04 02:53:40;;;;;;;6.10;4.30;;;9.10;99.90;;;;;;5133684;27;20632;-55
2021/05/04 02:56:08;;;;;;;4.70;4.20;;;9.10;99.90;;;;;;5134143;27;20241;-53
2021/05/04 02:58:35;;;;;;;6.13;4.43;;;9.00;99.90;;;;;;5133892;27;20292;-52
2021/05/04 03:01:03;;;;;;;5.93;4.80;;;9.10;99.90;;;;;;5134068;27;20290;-53
2021/05/04 03:03:30;;;;;;;5.50;4.20;;;9.10;99.90;;;;;;5133623;27;20206;-54
2021/05/04 03:05:58;;;;;;;5.57;4.30;;;9.10;99.90;;;;;;5134073;27;20294;-54
2021/05/04 03:08:24;;;;;;;4.50;3.77;;;9.00;99.90;;;;;;5133897;27;20212;-53
2021/05/04 03:10:51;;;;;;;5.60;3.83;;;8.90;99.90;;;;;;5133536;27;20744;-54
2021/05/04 03:13:22;;;;;;;5.77;4.33;;;8.80;99.90;;;;;;5133554;27;20271;-54
2021/05/04 03:15:50;;;;;;;5.10;4.60;;;8.70;99.90;;;;;;5133504;27;20287;-55
2021/05/04 03:18:17;;;;;;;5.60;4.27;;;8.70;99.90;;;;;;5133523;27;20229;-56
2021/05/04 03:20:44;;;;;;;5.37;4.33;;;8.60;99.90;;;;;;5133528;27;20207;-55
2021/05/04 03:23:12;;;;;;;6.83;4.80;;;8.70;99.90;;;;;;5133349;27;20234;-52
2021/05/04 03:25:41;;;;;;;6.70;4.73;;;8.70;99.90;;;;;;5133137;27;20298;-53
2021/05/04 03:28:08;;;;;;;4.93;4.43;;;8.60;99.90;;;;;;5133396;27;20290;-52
2021/05/04 03:30:35;;;;;;;5.87;5.10;;;8.60;99.90;;;;;;5133370;27;20297;-54
2021/05/04 03:33:02;;;;;;;6.13;4.83;;;8.70;99.90;;;;;;5133403;27;20290;-53
2021/05/04 03:35:29;;;;;;;6.50;4.83;;;8.70;99.90;;;;;;5133506;27;20199;-54
2021/05/04 03:37:56;;;;;;;5.33;4.80;;;8.70;99.90;;;;;;5133291;27;20513;-51
2021/05/04 03:40:24;;;;;;;6.27;4.80;;;8.60;99.90;;;;;;5133322;27;20301;-54
2021/05/04 03:42:51;;;;;;;5.87;5.03;;;8.50;99.90;;;;;;5133322;27;20289;-54
2021/05/04 03:45:18;;;;;;;5.33;4.83;;;8.30;99.90;;;;;;5133106;27;20200;-53
2021/05/04 03:47:45;;;;;;;8.50;5.07;;;8.30;99.90;;;;;;5133238;27;20194;-53
2021/05/04 03:50:15;;;;;;;5.37;4.87;;;8.30;99.90;;;;;;5133108;27;20410;-53
2021/05/04 03:52:42;;;;;;;5.87;5.27;;;8.30;99.90;;;;;;5133214;27;20221;-56
2021/05/04 03:55:11;;;;;;;6.33;5.57;;;8.20;99.90;;;;;;5132888;27;20234;-54
2021/05/04 03:57:39;;;;;;;6.07;5.33;;;8.20;99.90;;;;;;5133016;27;20250;-55
2021/05/04 04:00:08;;;;;;;5.57;4.93;;;8.20;99.90;;;;;;5132786;27;20291;-54
2021/05/04 04:02:35;;;;;;;6.40;5.23;;;8.30;99.90;;;;;;5132951;27;20676;-51
2021/05/04 04:05:02;;;;;;;6.53;5.23;;;8.40;99.90;;;;;;5133149;28;20223;-50
2021/05/04 04:07:30;;;;;;;5.90;5.30;;;8.50;99.90;;;;;;5132850;28;20201;-55
2021/05/04 04:09:57;;;;;;;6.37;5.73;;;8.50;99.90;;;;;;5132605;28;20213;-54
2021/05/04 04:12:24;;;;;;;6.93;5.40;;;8.60;99.90;;;;;;5132623;28;20359;-53
2021/05/04 04:14:53;;;;;;;6.47;5.20;;;8.70;99.90;;;;;;5132398;28;20236;-54
2021/05/04 04:17:20;;;;;;;6.13;5.30;;;8.60;99.90;;;;;;5132275;28;20214;-51
2021/05/04 04:19:48;;;;;;;6.37;5.37;;;8.60;99.90;;;;;;5132826;28;20206;-52
2021/05/04 04:22:15;;;;;;;6.10;5.47;;;8.60;99.90;;;;;;5132872;28;20195;-54
2021/05/04 04:24:42;;;;;;;6.77;5.10;;;8.70;99.90;;;;;;5133028;28;20206;-54
2021/05/04 04:27:09;;;;;;;7.80;5.30;;;8.70;99.90;;;;;;5132530;28;20290;-53
2021/05/04 04:29:36;;;;;;;6.00;5.40;;;8.70;99.90;;;;;;5132439;28;20195;-53
2021/05/04 04:32:05;;;;;;;7.57;5.20;;;8.70;99.90;;;;;;5132719;28;20281;-55
2021/05/04 04:34:32;;;;;;;7.47;5.47;;;9.00;99.90;;;;;;5132662;28;20615;-57
2021/05/04 04:36:59;;;;;;;6.97;5.60;;;9.00;99.90;;;;;;5133615;27;20207;-53
2021/05/04 04:39:26;;;;;;;7.33;5.30;;;9.10;99.90;;;;;;5136607;27;20199;-55
2021/05/04 04:41:53;;;;;;;6.23;5.27;;;9.10;99.90;;;;;;5136622;27;20195;-52
2021/05/04 04:44:20;;;;;;;6.30;5.37;;;9.20;99.90;;;;;;5136396;27;20289;-51
2021/05/04 04:46:47;;;;;;;6.60;5.27;;;9.30;99.90;;;;;;5136712;27;20298;-56
2021/05/04 04:49:16;;;;;;;7.60;4.87;;;9.30;99.90;;;;;;5136723;27;20199;-54
2021/05/04 04:51:44;;;;;;;7.97;5.30;;;9.50;99.90;;;;;;5136382;27;20589;-55
2021/05/04 04:54:11;;;;;;;9.23;5.97;;;9.40;99.90;;;;;;5136432;27;20194;-55
2021/05/04 04:56:38;;;;;;;7.17;5.77;;;9.50;99.90;;;;;;5135673;27;20639;-54
2021/05/04 04:59:06;;;;;;;6.97;5.20;;;9.40;99.90;;;;;;5136191;27;20226;-54
2021/05/04 05:01:33;;;;;;;6.40;5.23;;;9.50;99.90;;;;;;5136681;27;20229;-55
2021/05/04 05:04:01;;;;;;;7.13;5.70;;;9.50;99.90;;;;;;5137059;27;20230;-54
2021/05/04 05:06:29;;;;;;;6.07;5.33;;;9.60;99.90;;;;;;5136812;27;20206;-54
2021/05/04 05:08:56;;;;;;;6.23;5.27;;;9.70;99.90;;;;;;5136287;27;20224;-52
2021/05/04 05:11:24;;;;;;;7.00;5.73;;;9.70;99.90;;;;;;5136800;27;20233;-54
2021/05/04 05:13:51;;;;;;;6.60;5.60;;;9.70;99.90;;;;;;5136723;27;20277;-53
2021/05/04 05:16:19;;;;;;;6.97;5.20;;;9.90;99.90;;;;;;5136587;27;20261;-55
2021/05/04 05:18:52;;;;;;;7.77;5.00;;;9.90;99.90;;;;;;5136553;27;20217;-54
2021/05/04 05:21:19;;;;;;;6.70;5.00;;;9.90;99.90;;;;;;5136736;27;20205;-53
2021/05/04 05:23:48;;;;;;;8.10;5.80;;;10.00;99.90;;;;;;5136727;27;20271;-56
2021/05/04 05:26:17;;;;;;;6.30;5.70;;;10.00;99.90;;;;;;5136942;27;20361;-56
2021/05/04 05:28:44;;;;;;;7.13;4.73;;;10.00;99.90;;;;;;5136261;27;20210;-54
2021/05/04 05:31:11;;;;;;;5.60;5.10;;;10.10;99.90;;;;;;5136260;27;20241;-55
2021/05/04 05:33:38;;;;;;;7.10;6.10;;;10.10;99.90;;;;;;5136789;27;20202;-53
2021/05/04 05:36:05;;;;;;;6.13;5.00;;;10.20;99.90;;;;;;5136475;27;20299;-57
2021/05/04 05:38:36;;;;;;;5.77;5.10;;;10.20;99.90;;;;;;5135922;27;20210;-55
2021/05/04 05:41:04;;;;;;;5.23;4.70;;;10.20;99.90;;;;;;5136084;27;20245;-55
2021/05/04 05:43:32;;;;;;;7.63;5.30;;;10.30;99.90;;;;;;5135861;27;20196;-54
2021/05/04 05:45:59;;;;;;;6.13;4.60;;;10.40;99.90;;;;;;5136074;27;20202;-53
2021/05/04 05:48:26;;;;;;;7.37;5.37;;;10.40;99.90;;;;;;5135505;27;20194;-56
2021/05/04 05:50:53;;;;;;;7.27;5.10;;;10.50;99.90;;;;;;5135698;27;20294;-54
2021/05/04 05:53:21;;;;;;;6.03;4.23;;;10.60;99.90;;;;;;5135740;27;20198;-53
2021/05/04 05:55:48;;;;;;;5.30;4.80;;;10.60;99.90;;;;;;5135480;27;20285;-55
2021/05/04 05:58:15;;;;;;;5.50;4.73;;;10.70;99.90;;;;;;5142079;27;20316;-55
2021/05/04 06:00:42;;;;;;;5.17;4.33;;;10.80;99.90;;;;;;5140969;27;20198;-56
2021/05/04 06:03:09;;;;;;;6.07;4.83;;;10.80;99.90;;;;;;5132973;27;20289;-56
2021/05/04 06:05:36;;;;;;;5.63;4.30;;;10.80;99.90;;;;;;5132585;27;20208;-51
2021/05/04 06:08:05;;;;;;;5.80;4.33;;;10.80;99.90;;;;;;5132604;27;20199;-54
2021/05/04 06:10:32;;;;;;;5.43;4.40;;;10.80;99.90;;;;;;5132468;27;20301;-51
2021/05/04 06:13:00;;;;;;;8.40;4.57;;;10.90;99.90;;;;;;5132446;27;20302;-55
2021/05/04 06:15:28;;;;;;;5.17;4.50;;;11.00;99.90;;;;;;5132108;27;20226;-56
2021/05/04 06:17:55;;;;;;;5.13;4.53;;;11.20;99.90;;;;;;5132409;27;20320;-55
2021/05/04 06:20:22;;;;;;;5.67;3.90;;;11.20;99.90;;;;;;5132756;27;20202;-53
2021/05/04 06:22:49;;;;;;;5.87;4.70;;;11.30;99.90;;;;;;5132688;27;20278;-55
2021/05/04 06:25:16;;;;;;;4.87;4.30;;;11.30;99.90;;;;;;5132234;27;20670;-54
2021/05/04 06:27:43;;;;;;;5.53;4.63;;;11.30;99.90;;;;;;5132369;27;20237;-56
2021/05/04 06:30:12;;;;;;;5.97;4.57;;;11.40;99.90;;;;;;5132056;27;20271;-54
2021/05/04 06:32:40;;;;;;;5.73;4.33;;;11.50;99.90;;;;;;5131823;27;20658;-55
2021/05/04 06:35:09;;;;;;;5.40;4.90;;;11.60;99.90;;;;;;5131740;27;20214;-54
2021/05/04 06:37:35;;;;;;;5.03;4.30;;;11.70;99.90;;;;;;5132095;27;20218;-54
2021/05/04 06:40:04;;;;;;;5.47;4.10;;;11.80;99.90;;;;;;5131479;27;20206;-56
2021/05/04 06:42:31;;;;;;;5.23;4.70;;;11.90;99.90;;;;;;5131867;27;20255;-54
2021/05/04 06:44:58;;;;;;;5.00;4.30;;;11.90;99.90;;;;;;5130851;27;20547;-54
2021/05/04 06:47:25;;;;;;;4.70;4.20;;;12.00;99.90;;;;;;5131560;27;20233;-55
2021/05/04 06:49:52;;;;;;;5.43;4.40;;;12.00;99.90;;;;;;5131415;27;20334;-54
2021/05/04 06:52:19;;;;;;;5.97;4.40;;;12.00;99.90;;;;;;5131777;27;20286;-54
2021/05/04 06:54:46;;;;;;;6.37;5.00;;;12.00;99.90;;;;;;5131286;27;20563;-56
2021/05/04 06:57:13;;;;;;;4.90;4.40;;;12.00;99.90;;;;;;5131371;27;20210;-53
2021/05/04 06:59:41;;;;;;;5.33;4.40;;;11.90;99.90;;;;;;5130925;27;20704;-55
2021/05/04 07:02:08;;;;;;;4.77;4.20;;;11.80;99.90;;;;;;5131097;27;20221;-56
2021/05/04 07:04:35;;;;;;;4.63;4.20;;;11.90;99.90;;;;;;5131675;27;20247;-54
2021/05/04 07:07:03;;;;;;;5.40;4.10;;;11.80;99.90;;;;;;5131499;27;20274;-55
2021/05/04 07:09:30;;;;;;;6.07;4.43;;;11.80;99.90;;;;;;5131257;27;20222;-56
2021/05/04 07:11:57;;;;;;;4.50;4.10;;;11.70;99.90;;;;;;5131457;27;20241;-57
2021/05/04 07:14:24;;;;;;;7.67;4.63;;;11.70;99.90;;;;;;5130960;27;20199;-57
2021/05/04 07:16:51;;;;;;;4.83;4.33;;;11.70;99.90;;;;;;5130977;27;20182;-56
2021/05/04 07:19:18;;;;;;;4.83;4.20;;;11.60;99.90;;;;;;5130653;27;20678;-53
2021/05/04 07:21:45;;;;;;;5.37;4.40;;;11.60;99.90;;;;;;5130867;27;20237;-50
2021/05/04 07:24:12;;;;;;;4.93;4.40;;;11.60;99.90;;;;;;5130814;27;20241;-52
2021/05/04 07:26:39;;;;;;;4.80;4.40;;;11.60;99.90;;;;;;5132093;27;20245;-54
2021/05/04 07:29:10;;;;;;;5.57;4.40;;;11.70;99.90;;;;;;5130997;27;20210;-55
2021/05/04 07:31:37;;;;;;;4.43;4.03;;;11.70;99.90;;;;;;5130749;27;20639;-55
2021/05/04 07:34:05;;;;;;;4.50;3.90;;;11.70;99.90;;;;;;5130951;27;20206;-52
2021/05/04 07:36:32;;;;;;;4.57;4.00;;;11.80;99.90;;;;;;5130757;27;20210;-55
2021/05/04 07:38:59;;;;;;;4.60;3.97;;;11.90;99.90;;;;;;5130550;27;20214;-56
2021/05/04 07:41:27;;;;;;;4.83;3.80;;;11.80;99.90;;;;;;5130717;27;20563;-53
2021/05/04 07:43:54;;;;;;;4.40;4.00;;;11.80;99.90;;;;;;5130252;27;20297;-51
2021/05/04 07:46:21;;;;;;;4.63;4.23;;;11.90;99.90;;;;;;5130666;27;20298;-53
2021/05/04 07:48:48;;;;;;;5.63;4.50;;;11.90;99.90;;;;;;5130753;27;20198;-54
2021/05/04 07:51:30;;;;;;;4.80;4.23;;;12.00;99.90;;;;;;5130735;27;20189;-57
2021/05/04 07:53:57;;;;;;;4.90;4.10;;;12.10;99.90;;;;;;5130711;27;20614;-59
2021/05/04 07:56:24;;;;;;;4.30;3.90;;;12.10;99.90;;;;;;5130560;27;20301;-53
2021/05/04 07:58:52;;;;;;;4.93;4.27;;;12.20;99.90;;;;;;5130108;27;20756;-55
2021/05/04 08:01:19;;;;;;;4.50;4.10;;;12.20;99.90;;;;;;5130482;27;20666;-54
2021/05/04 08:03:46;;;;;;;4.80;4.20;;;12.20;99.90;;;;;;5130637;27;20197;-55
2021/05/04 08:06:13;;;;;;;4.90;3.67;;;12.20;99.90;;;;;;5130339;28;20808;-55
2021/05/04 08:08:40;;;;;;;5.40;4.20;;;12.40;99.90;;;;;;5129934;28;20732;-52
2021/05/04 08:11:06;;;;;;;5.47;4.00;;;12.40;99.90;;;;;;5130393;27;20204;-51
2021/05/04 08:13:35;;;;;;;5.50;4.10;;;12.50;99.90;;;;;;5134222;27;20198;-55
2021/05/04 08:16:07;;;;;;;4.40;4.00;;;12.70;99.90;;;;;;5134246;27;20622;-55
2021/05/04 08:18:34;;;;;;;4.50;3.60;;;12.80;99.90;;;;;;5134807;27;20214;-59
2021/05/04 08:21:02;;;;;;;6.10;4.37;;;12.90;99.90;;;;;;5134369;27;20725;-61
2021/05/04 08:23:29;;;;;;;4.93;3.60;;;12.90;99.90;;;;;;5134636;27;20199;-62
2021/05/04 08:25:56;;;;;;;6.57;3.93;;;13.00;99.90;;;;;;5134038;27;20301;-62
2021/05/04 08:28:23;;;;;;;3.50;3.20;;;13.00;99.90;;;;;;5133917;27;20725;-61
2021/05/04 08:30:51;;;;;;;7.13;3.20;;;13.00;99.90;;;;;;5134088;27;20221;-62
2021/05/04 08:33:19;;;;;;;3.50;3.00;;;12.90;99.90;;;;;;5134374;27;20229;-61
2021/05/04 08:35:46;;;;;;;3.33;2.57;;;12.80;99.90;;;;;;5133896;27;20315;-62
2021/05/04 08:38:14;;;;;;;3.50;3.20;;;12.80;99.90;;;;;;5133799;27;20692;-61
2021/05/04 08:40:41;;;;;;;3.70;3.03;;;12.90;99.90;;;;;;5133773;27;20670;-61
2021/05/04 08:43:08;;;;;;;5.07;3.00;;;13.00;99.90;;;;;;5133872;27;20198;-60
2021/05/04 08:45:35;;;;;;;3.60;3.10;;;13.00;99.90;;;;;;5134125;27;20298;-63
2021/05/04 08:48:04;;;;;;;3.70;2.73;;;13.10;99.90;;;;;;5134021;27;20199;-62
2021/05/04 08:50:35;;;;;;;3.30;3.00;;;13.10;99.90;;;;;;5134007;27;20230;-63
2021/05/04 08:53:03;;;;;;;5.27;3.20;;;13.10;99.90;;;;;;5133706;27;20218;-61
2021/05/04 08:55:30;;;;;;;4.37;2.30;;;13.00;99.90;;;;;;5133384;27;20237;-61
2021/05/04 08:58:02;;;;;;;5.80;2.00;;;13.00;99.90;;;;;;5133565;27;20207;-61
2021/05/04 09:00:49;;;;;;;4.47;2.10;;;12.90;99.90;;;;;;5133697;27;20216;-60
2021/05/04 09:03:17;;;;;;;3.03;1.83;;;12.90;99.90;;;;;;5133614;27;20293;-63
2021/05/04 09:05:51;;;;;;;3.60;2.33;;;12.90;99.90;;;;;;5133432;27;20646;-60
2021/05/04 09:08:34;;;;;;;3.70;2.10;;;12.90;99.90;;;;;;5133675;27;20593;-61
2021/05/04 09:11:29;;;;;;;3.77;2.50;;;12.80;99.90;;;;;;5132651;27;20631;-63
2021/05/04 09:14:03;;;;;;;2.83;2.27;;;12.80;99.90;;;;;;5132897;27;20183;-59
2021/05/04 09:16:41;;;;;;;2.97;2.30;;;12.80;99.90;;;;;;5132978;27;20227;-60
2021/05/04 09:19:16;;;;;;;3.13;2.70;;;12.70;99.90;;;;;;5133320;27;20209;-63
2021/05/04 09:21:44;;;;;;;5.87;2.40;;;12.70;99.90;;;;;;5133223;27;20179;-63
2021/05/04 09:24:25;;;;;;;2.43;2.17;;;12.60;99.90;;;;;;5132311;27;20728;-59
2021/05/04 09:27:05;;;;;;;4.43;2.20;;;12.70;99.90;;;;;;5132945;27;20203;-60
2021/05/04 09:29:34;;;;;;;2.27;2.07;;;12.70;99.90;;;;;;5132964;27;20265;-62
2021/05/04 09:32:18;;;;;;;3.17;2.20;;;12.70;99.90;;;;;;5133240;27;20198;-61
2021/05/04 09:34:50;;;;;;;2.40;2.20;;;12.70;99.90;;;;;;5133158;27;20669;-61
2021/05/04 09:37:29;;;;;;;3.87;2.30;;;12.80;99.90;;;;;;5133113;27;20227;-63
2021/05/04 09:40:15;;;;;;;5.23;2.00;;;13.00;99.90;;;;;;5132609;27;20186;-61
2021/05/04 09:43:00;;;;;;;4.17;2.20;;;13.10;99.90;;;;;;5132777;27;20634;-61
2021/05/04 09:45:27;;;;;;;3.47;2.10;;;13.20;99.90;;;;;;5132971;27;20218;-61
2021/05/04 09:48:22;;;;;;;4.20;2.07;;;13.40;99.90;;;;;;5132921;27;20219;-61
2021/05/04 09:50:57;;;;;;;3.87;2.30;;;13.70;99.90;;;;;;5127111;27;20213;-60
2021/05/04 09:53:37;;;;;;;2.70;2.47;;;13.90;99.90;;;;;;5132520;27;20646;-60
2021/05/04 09:56:04;;;;;;;3.80;2.17;;;14.10;99.90;;;;;;5132384;27;20670;-61
2021/05/04 09:58:36;;;;;;;3.27;2.37;;;14.30;99.90;;;;;;5132538;27;20301;-60
2021/05/04 10:01:06;;;;;;;2.55;2.00;;;14.50;99.90;;;;;;5132850;27;20187;-60
2021/05/04 10:03:34;;;;;;;2.47;2.00;;;14.70;99.90;;;;;;5132838;27;20198;-60
2021/05/04 10:06:04;;;;;;;2.60;2.10;;;14.80;99.90;;;;;;5132436;27;20257;-60
2021/05/04 10:08:33;;;;;;;3.63;2.17;;;14.80;99.90;;;;;;5132553;27;20234;-60
2021/05/04 10:11:01;;;;;;;3.33;1.90;;;15.00;99.90;;;;;;5131781;27;20555;-61
2021/05/04 10:13:30;;;;;;;2.03;1.70;;;15.20;99.90;;;;;;5132177;27;20234;-62
2021/05/04 10:15:57;;;;;;;2.50;2.17;;;15.40;99.90;;;;;;5131775;27;20264;-62
2021/05/04 10:18:25;;;;;;;3.10;2.50;;;15.60;99.90;;;;;;5131879;27;20705;-63
2021/05/04 10:20:54;;;;;;;2.83;2.33;;;15.80;99.90;;;;;;5131572;27;20549;-60
2021/05/04 10:23:22;;;;;;;2.65;2.20;;;15.90;99.90;;;;;;5132009;27;20257;-59
2021/05/04 10:25:52;;;;;;;3.22;2.13;;;16.10;99.90;;;;;;5131685;27;20194;-58
2021/05/04 10:28:21;;;;;;;4.07;2.20;;;15.90;99.90;;;;;;5132083;27;20704;-60
2021/05/04 10:30:48;;;;;;;3.38;2.30;;;15.80;99.90;;;;;;5131644;27;20289;-60
2021/05/04 10:33:40;;;;;;;6.25;2.60;;;15.60;99.90;;;;;;5132048;27;20202;-59
2021/05/04 10:36:31;;;;;;;2.60;2.30;;;15.30;99.90;;;;;;5106294;27;20203;-59
2021/05/04 10:38:58;;;;;;;5.65;2.47;;;14.90;99.90;;;;;;5131372;27;20361;-61
2021/05/04 10:41:26;;;;;;;3.88;2.60;;;14.80;99.90;;;;;;5131057;27;20727;-60
2021/05/04 10:44:00;;;;;;;4.20;2.10;;;14.80;99.90;;;;;;5131179;27;20203;-61
2021/05/04 10:46:39;;;;;;;3.58;1.95;;;14.70;99.90;;;;;;5131854;27;20179;-60
2021/05/04 10:49:08;;;;;;;2.20;2.00;;;14.70;99.90;;;;;;5131225;27;20221;-59
2021/05/04 10:51:44;;;;;;;1.83;1.70;;;14.80;99.90;;;;;;5131611;27;20198;-62
2021/05/04 10:54:12;;;;;;;2.13;1.80;;;14.70;99.90;;;;;;5131503;27;20541;-62
2021/05/04 10:56:42;;;;;;;3.05;1.98;;;14.60;99.90;;;;;;5131304;27;20198;-62
2021/05/04 10:59:11;;;;;;;1.97;1.47;;;14.50;99.90;;;;;;5131220;27;20693;-59
2021/05/04 11:01:38;;;;;;;2.00;1.60;;;14.50;99.90;;;;;;5130884;27;20713;-59
2021/05/04 11:04:07;;;;;;;2.87;1.40;;;14.60;99.90;;;;;;5131026;27;20552;-60
2021/05/04 11:06:50;;;;;;;3.27;1.40;;;14.70;99.90;;;;;;5131405;27;20235;-62
2021/05/04 11:09:21;;;;;;;3.10;1.50;;;15.00;99.90;;;;;;5131268;27;20210;-61
2021/05/04 11:11:51;;;;;;;1.47;1.20;;;15.10;99.90;;;;;;5131114;27;20187;-62
2021/05/04 11:14:32;;;;;;;1.70;1.60;;;15.10;99.90;;;;;;5130964;27;20553;-60
2021/05/04 11:17:07;;;;;;;1.83;1.53;;;15.10;99.90;;;;;;5110413;28;20218;-53
2021/05/04 11:19:36;;;;;;;1.70;1.47;;;15.10;99.90;;;;;;5110331;28;20288;-52
2021/05/04 11:22:12;;;;;;;1.67;1.40;;;15.10;99.90;;;;;;5110523;28;20207;-54
2021/05/04 11:24:43;;;;;;;2.93;1.50;;;15.10;99.90;;;;;;5109893;28;20294;-53
2021/05/04 11:27:19;;;;;;;2.80;1.90;;;14.90;99.90;;;;;;5110724;28;20210;-53
2021/05/04 11:29:47;;;;;;;5.53;1.60;;;14.70;99.90;;;;;;5110341;28;20290;-53
2021/05/04 11:32:17;;;;;;;2.50;1.57;;;14.60;99.90;;;;;;5110349;28;20282;-53
2021/05/04 11:34:47;;;;;;;3.80;1.43;;;14.40;99.90;;;;;;5109762;28;20696;-54
2021/05/04 11:37:35;;;;;;;1.47;1.30;;;14.50;99.90;;;;;;5110114;28;20294;-53
2021/05/04 11:40:06;;;;;;;2.87;1.50;;;14.50;99.90;;;;;;5106986;28;20235;-53
2021/05/04 11:42:36;;;;;;;3.57;1.33;;;14.50;99.90;;;;;;5109853;28;20200;-54
2021/05/04 11:45:08;;;;;;;2.40;1.40;;;14.60;99.90;;;;;;5110130;28;20228;-54
2021/05/04 11:47:37;;;;;;;2.43;1.30;;;14.70;99.90;;;;;;5109815;28;20187;-52
2021/05/04 11:50:07;;;;;;;3.85;1.70;;;14.80;99.90;;;;;;5108938;28;20509;-52
2021/05/04 11:52:35;;;;;;;1.45;1.33;;;14.90;99.90;;;;;;5110085;28;20202;-55
2021/05/04 11:55:21;;;;;;;3.42;1.92;;;14.80;99.90;;;;;;5109495;28;20222;-55
2021/05/04 11:57:50;;;;;;;1.60;1.50;;;14.80;99.90;;;;;;5089542;28;20184;-53
2021/05/04 12:00:19;;;;;;;2.30;1.40;;;14.80;99.90;;;;;;5089258;28;20204;-52
2021/05/04 12:02:46;;;;;;;2.70;1.43;;;14.80;99.90;;;;;;5089190;28;20669;-53
2021/05/04 12:05:16;;;;;;;4.97;1.70;;;15.00;99.90;;;;;;5089387;28;20215;-53
2021/05/04 12:07:45;;;;;;;2.40;1.50;;;15.10;99.90;;;;;;5089223;28;20618;-54
2021/05/04 12:10:37;;;;;;;2.30;1.50;;;15.30;99.90;;;;;;5088337;28;20208;-53
2021/05/04 12:13:07;;;;;;;3.03;1.50;;;15.40;99.90;;;;;;5088780;28;20192;-54
2021/05/04 12:15:36;;;;;;;2.88;1.67;;;15.50;99.90;;;;;;5098810;28;20276;-53
2021/05/04 12:18:06;;;;;;;2.15;1.60;;;15.50;99.90;;;;;;5109916;28;20214;-54
2021/05/04 12:20:36;;;;;;;3.63;1.83;;;15.60;99.90;;;;;;5109958;28;20278;-54
2021/05/04 12:23:06;;;;;;;2.42;1.48;;;15.70;99.90;;;;;;5109278;28;20563;-52
2021/05/04 12:25:42;;;;;;;1.70;1.60;;;16.00;99.90;;;;;;5109578;28;20183;-50
2021/05/04 12:28:13;;;;;;;3.85;1.75;;;16.40;99.90;;;;;;5109238;28;20234;-57
2021/05/04 12:30:39;;;;;;;4.15;1.55;;;16.50;99.90;;;;;;5109608;28;20603;-57
2021/05/04 12:33:06;;;;;;;2.92;1.60;;;16.40;99.90;;;;;;5109750;28;20199;-53
2021/05/04 12:35:37;;;;;;;3.63;1.90;;;16.20;99.90;;;;;;5109806;28;20199;-53
2021/05/04 12:38:11;;;;;;;2.90;1.63;;;16.00;99.90;;;;;;5109503;28;20180;-55
2021/05/04 12:40:40;;;;;;;2.60;1.50;;;15.70;99.90;;;;;;5109924;28;20605;-55
2021/05/04 12:43:14;;;;;;;2.70;1.30;;;15.50;99.90;;;;;;5109528;28;20205;-55
2021/05/04 12:46:01;;;;;;;1.85;1.52;;;15.30;99.90;;;;;;5109389;28;20562;-55
2021/05/04 12:48:28;;;;;;;2.72;1.40;;;15.10;99.90;;;;;;5109301;28;20287;-55
2021/05/04 12:51:04;;;;;;;4.28;1.20;;;15.10;99.90;;;;;;5109506;28;20200;-52
2021/05/04 12:53:34;;;;;;;1.30;1.20;;;15.00;99.90;;;;;;5109473;28;20233;-55
2021/05/04 12:56:04;;;;;;;5.25;1.40;;;14.90;99.90;;;;;;5116821;28;20194;-56
2021/05/04 12:58:31;;;;;;;2.03;1.20;;;14.90;99.90;;;;;;5131794;27;20225;-53
2021/05/04 13:01:07;;;;;;;2.38;1.70;;;14.90;99.90;;;;;;5133405;27;20199;-54